sensor_id;sensor_type;location;lat;lon;timestamp;P1;durP1;ratioP1;P2;durP2;ratioP2
20870;SDS011;10595;51.218;3.452;2023-03-19T00:00:15;6.80;;;6.07;;
20870;SDS011;10595;51.218;3.452;2023-03-19T00:02:41;7.63;;;5.77;;
20870;SDS011;10595;51.218;3.452;2023-03-19T00:05:13;6.80;;;5.80;;
20870;SDS011;10595;51.218;3.452;2023-03-19T00:07:40;11.17;;;6.60;;
20870;SDS011;10595;51.218;3.452;2023-03-19T00:10:06;8.80;;;5.93;;
20870;SDS011;10595;51.218;3.452;2023-03-19T00:12:32;7.13;;;5.53;;
20870;SDS011;10595;51.218;3.452;2023-03-19T00:14:58;10.23;;;6.00;;
20870;SDS011;10595;51.218;3.452;2023-03-19T00:17:24;7.70;;;5.30;;
20870;SDS011;10595;51.218;3.452;2023-03-19T00:19:50;6.83;;;5.13;;
20870;SDS011;10595;51.218;3.452;2023-03-19T00:22:16;5.70;;;5.10;;
20870;SDS011;10595;51.218;3.452;2023-03-19T00:24:42;9.47;;;5.37;;
20870;SDS011;10595;51.218;3.452;2023-03-19T00:27:08;8.00;;;5.33;;
20870;SDS011;10595;51.218;3.452;2023-03-19T00:29:34;8.13;;;5.80;;
20870;SDS011;10595;51.218;3.452;2023-03-19T00:32:01;7.07;;;5.40;;
20870;SDS011;10595;51.218;3.452;2023-03-19T00:34:27;9.67;;;5.70;;
20870;SDS011;10595;51.218;3.452;2023-03-19T00:36:53;8.03;;;5.53;;
20870;SDS011;10595;51.218;3.452;2023-03-19T00:39:21;9.13;;;6.03;;
20870;SDS011;10595;51.218;3.452;2023-03-19T00:41:47;9.53;;;5.80;;
20870;SDS011;10595;51.218;3.452;2023-03-19T00:44:15;6.33;;;5.73;;
20870;SDS011;10595;51.218;3.452;2023-03-19T00:46:42;7.87;;;5.43;;
20870;SDS011;10595;51.218;3.452;2023-03-19T00:49:08;9.70;;;6.60;;
20870;SDS011;10595;51.218;3.452;2023-03-19T00:51:34;8.40;;;5.93;;
20870;SDS011;10595;51.218;3.452;2023-03-19T00:54:00;8.27;;;6.23;;
20870;SDS011;10595;51.218;3.452;2023-03-19T00:56:26;8.70;;;6.43;;
20870;SDS011;10595;51.218;3.452;2023-03-19T00:58:52;9.87;;;7.13;;
20870;SDS011;10595;51.218;3.452;2023-03-19T01:01:18;8.37;;;6.70;;
20870;SDS011;10595;51.218;3.452;2023-03-19T01:03:45;10.47;;;6.33;;
20870;SDS011;10595;51.218;3.452;2023-03-19T01:06:11;8.73;;;6.53;;
20870;SDS011;10595;51.218;3.452;2023-03-19T01:08:37;11.20;;;6.70;;
20870;SDS011;10595;51.218;3.452;2023-03-19T01:11:11;8.33;;;6.87;;
20870;SDS011;10595;51.218;3.452;2023-03-19T01:13:38;9.90;;;7.03;;
20870;SDS011;10595;51.218;3.452;2023-03-19T01:16:05;13.53;;;6.80;;
20870;SDS011;10595;51.218;3.452;2023-03-19T01:18:31;10.13;;;7.23;;
20870;SDS011;10595;51.218;3.452;2023-03-19T01:20:57;8.97;;;6.90;;
20870;SDS011;10595;51.218;3.452;2023-03-19T01:23:24;9.77;;;7.03;;
20870;SDS011;10595;51.218;3.452;2023-03-19T01:25:50;8.23;;;6.60;;
20870;SDS011;10595;51.218;3.452;2023-03-19T01:28:16;11.17;;;7.70;;
20870;SDS011;10595;51.218;3.452;2023-03-19T01:30:42;10.60;;;7.40;;
20870;SDS011;10595;51.218;3.452;2023-03-19T01:33:08;11.73;;;7.30;;
20870;SDS011;10595;51.218;3.452;2023-03-19T01:35:34;13.43;;;7.47;;
20870;SDS011;10595;51.218;3.452;2023-03-19T01:38:00;12.27;;;8.00;;
20870;SDS011;10595;51.218;3.452;2023-03-19T01:40:27;11.47;;;8.07;;
20870;SDS011;10595;51.218;3.452;2023-03-19T01:43:13;11.53;;;7.63;;
20870;SDS011;10595;51.218;3.452;2023-03-19T01:45:41;16.47;;;8.70;;
20870;SDS011;10595;51.218;3.452;2023-03-19T01:50:52;15.60;;;9.57;;
20870;SDS011;10595;51.218;3.452;2023-03-19T01:53:20;18.00;;;10.87;;
20870;SDS011;10595;51.218;3.452;2023-03-19T01:55:47;20.50;;;11.47;;
20870;SDS011;10595;51.218;3.452;2023-03-19T01:58:13;20.97;;;10.40;;
20870;SDS011;10595;51.218;3.452;2023-03-19T02:00:40;18.13;;;11.20;;
20870;SDS011;10595;51.218;3.452;2023-03-19T02:03:06;19.50;;;12.63;;
20870;SDS011;10595;51.218;3.452;2023-03-19T02:05:32;19.43;;;12.00;;
20870;SDS011;10595;51.218;3.452;2023-03-19T02:08:01;20.30;;;12.97;;
20870;SDS011;10595;51.218;3.452;2023-03-19T02:10:28;18.77;;;12.30;;
20870;SDS011;10595;51.218;3.452;2023-03-19T02:12:55;23.97;;;15.10;;
20870;SDS011;10595;51.218;3.452;2023-03-19T02:15:21;26.57;;;14.90;;
20870;SDS011;10595;51.218;3.452;2023-03-19T02:17:47;23.10;;;14.67;;
20870;SDS011;10595;51.218;3.452;2023-03-19T02:20:29;22.93;;;14.87;;
20870;SDS011;10595;51.218;3.452;2023-03-19T02:25:34;22.30;;;14.73;;
20870;SDS011;10595;51.218;3.452;2023-03-19T02:28:02;22.67;;;13.93;;
20870;SDS011;10595;51.218;3.452;2023-03-19T02:30:30;18.87;;;13.20;;
20870;SDS011;10595;51.218;3.452;2023-03-19T02:32:58;27.37;;;14.23;;
20870;SDS011;10595;51.218;3.452;2023-03-19T02:35:24;21.87;;;13.00;;
20870;SDS011;10595;51.218;3.452;2023-03-19T02:37:51;18.93;;;12.53;;
20870;SDS011;10595;51.218;3.452;2023-03-19T02:40:24;21.13;;;12.63;;
20870;SDS011;10595;51.218;3.452;2023-03-19T02:42:50;20.93;;;12.00;;
20870;SDS011;10595;51.218;3.452;2023-03-19T02:45:16;17.90;;;11.27;;
20870;SDS011;10595;51.218;3.452;2023-03-19T02:47:42;20.60;;;12.17;;
20870;SDS011;10595;51.218;3.452;2023-03-19T02:50:09;20.33;;;13.17;;
20870;SDS011;10595;51.218;3.452;2023-03-19T02:52:36;28.93;;;14.30;;
20870;SDS011;10595;51.218;3.452;2023-03-19T02:55:03;26.20;;;14.83;;
20870;SDS011;10595;51.218;3.452;2023-03-19T02:57:30;28.83;;;14.80;;
20870;SDS011;10595;51.218;3.452;2023-03-19T02:59:56;29.03;;;15.60;;
20870;SDS011;10595;51.218;3.452;2023-03-19T03:02:22;32.40;;;16.23;;
20870;SDS011;10595;51.218;3.452;2023-03-19T03:04:48;29.97;;;16.20;;
20870;SDS011;10595;51.218;3.452;2023-03-19T03:07:14;34.60;;;17.10;;
20870;SDS011;10595;51.218;3.452;2023-03-19T03:09:41;35.83;;;17.50;;
20870;SDS011;10595;51.218;3.452;2023-03-19T03:12:07;35.83;;;16.80;;
20870;SDS011;10595;51.218;3.452;2023-03-19T03:14:33;35.30;;;17.13;;
20870;SDS011;10595;51.218;3.452;2023-03-19T03:17:00;32.67;;;16.57;;
20870;SDS011;10595;51.218;3.452;2023-03-19T03:19:26;35.33;;;15.63;;
20870;SDS011;10595;51.218;3.452;2023-03-19T03:21:52;38.17;;;16.37;;
20870;SDS011;10595;51.218;3.452;2023-03-19T03:24:18;38.93;;;16.83;;
20870;SDS011;10595;51.218;3.452;2023-03-19T03:26:44;32.57;;;15.67;;
20870;SDS011;10595;51.218;3.452;2023-03-19T03:29:10;36.90;;;17.23;;
20870;SDS011;10595;51.218;3.452;2023-03-19T03:31:36;42.30;;;16.00;;
20870;SDS011;10595;51.218;3.452;2023-03-19T03:34:02;37.13;;;16.30;;
20870;SDS011;10595;51.218;3.452;2023-03-19T03:36:28;36.17;;;15.23;;
20870;SDS011;10595;51.218;3.452;2023-03-19T03:38:54;41.27;;;15.83;;
20870;SDS011;10595;51.218;3.452;2023-03-19T03:41:21;38.07;;;15.40;;
20870;SDS011;10595;51.218;3.452;2023-03-19T03:43:47;45.83;;;16.33;;
20870;SDS011;10595;51.218;3.452;2023-03-19T03:46:13;41.10;;;16.07;;
20870;SDS011;10595;51.218;3.452;2023-03-19T03:48:39;38.37;;;16.63;;
20870;SDS011;10595;51.218;3.452;2023-03-19T03:51:06;40.30;;;16.07;;
20870;SDS011;10595;51.218;3.452;2023-03-19T03:53:32;44.70;;;15.70;;
20870;SDS011;10595;51.218;3.452;2023-03-19T03:55:58;37.17;;;16.07;;
20870;SDS011;10595;51.218;3.452;2023-03-19T03:58:24;38.87;;;16.73;;
20870;SDS011;10595;51.218;3.452;2023-03-19T04:00:50;42.20;;;16.60;;
20870;SDS011;10595;51.218;3.452;2023-03-19T04:03:18;42.10;;;17.27;;
20870;SDS011;10595;51.218;3.452;2023-03-19T04:05:44;45.27;;;17.23;;
20870;SDS011;10595;51.218;3.452;2023-03-19T04:08:10;44.50;;;17.13;;
20870;SDS011;10595;51.218;3.452;2023-03-19T04:10:40;36.90;;;16.00;;
20870;SDS011;10595;51.218;3.452;2023-03-19T04:13:07;45.23;;;16.80;;
20870;SDS011;10595;51.218;3.452;2023-03-19T04:15:33;34.40;;;16.20;;
20870;SDS011;10595;51.218;3.452;2023-03-19T04:17:59;37.00;;;16.37;;
20870;SDS011;10595;51.218;3.452;2023-03-19T04:20:25;35.40;;;17.17;;
20870;SDS011;10595;51.218;3.452;2023-03-19T04:22:51;37.30;;;15.73;;
20870;SDS011;10595;51.218;3.452;2023-03-19T04:25:17;33.97;;;16.00;;
20870;SDS011;10595;51.218;3.452;2023-03-19T04:27:44;34.90;;;15.20;;
20870;SDS011;10595;51.218;3.452;2023-03-19T04:30:10;29.07;;;14.77;;
20870;SDS011;10595;51.218;3.452;2023-03-19T04:32:37;30.53;;;14.07;;
20870;SDS011;10595;51.218;3.452;2023-03-19T04:35:03;31.00;;;14.20;;
20870;SDS011;10595;51.218;3.452;2023-03-19T04:37:29;22.93;;;12.80;;
20870;SDS011;10595;51.218;3.452;2023-03-19T04:39:55;26.70;;;12.97;;
20870;SDS011;10595;51.218;3.452;2023-03-19T04:42:22;25.37;;;12.13;;
20870;SDS011;10595;51.218;3.452;2023-03-19T04:44:48;26.50;;;12.63;;
20870;SDS011;10595;51.218;3.452;2023-03-19T04:47:14;26.37;;;12.53;;
20870;SDS011;10595;51.218;3.452;2023-03-19T04:49:40;26.67;;;12.27;;
20870;SDS011;10595;51.218;3.452;2023-03-19T04:52:06;27.47;;;13.70;;
20870;SDS011;10595;51.218;3.452;2023-03-19T04:54:33;30.57;;;13.07;;
20870;SDS011;10595;51.218;3.452;2023-03-19T04:56:59;26.50;;;12.07;;
20870;SDS011;10595;51.218;3.452;2023-03-19T04:59:25;32.30;;;14.20;;
20870;SDS011;10595;51.218;3.452;2023-03-19T05:01:51;29.17;;;13.23;;
20870;SDS011;10595;51.218;3.452;2023-03-19T05:04:17;24.80;;;12.57;;
20870;SDS011;10595;51.218;3.452;2023-03-19T05:06:43;28.80;;;14.13;;
20870;SDS011;10595;51.218;3.452;2023-03-19T05:09:09;29.13;;;14.83;;
20870;SDS011;10595;51.218;3.452;2023-03-19T05:11:35;29.10;;;14.87;;
20870;SDS011;10595;51.218;3.452;2023-03-19T05:14:02;32.60;;;15.33;;
20870;SDS011;10595;51.218;3.452;2023-03-19T05:16:28;28.93;;;14.33;;
20870;SDS011;10595;51.218;3.452;2023-03-19T05:18:54;31.00;;;15.03;;
20870;SDS011;10595;51.218;3.452;2023-03-19T05:21:20;29.13;;;14.13;;
20870;SDS011;10595;51.218;3.452;2023-03-19T05:23:46;34.63;;;15.10;;
20870;SDS011;10595;51.218;3.452;2023-03-19T05:26:16;31.97;;;15.53;;
20870;SDS011;10595;51.218;3.452;2023-03-19T05:28:42;31.83;;;14.37;;
20870;SDS011;10595;51.218;3.452;2023-03-19T05:31:08;29.73;;;15.17;;
20870;SDS011;10595;51.218;3.452;2023-03-19T05:33:34;26.20;;;14.57;;
20870;SDS011;10595;51.218;3.452;2023-03-19T05:36:00;30.60;;;14.93;;
20870;SDS011;10595;51.218;3.452;2023-03-19T05:38:27;34.30;;;15.47;;
20870;SDS011;10595;51.218;3.452;2023-03-19T05:40:53;34.27;;;15.43;;
20870;SDS011;10595;51.218;3.452;2023-03-19T05:43:19;27.30;;;15.37;;
20870;SDS011;10595;51.218;3.452;2023-03-19T05:45:48;32.03;;;15.67;;
20870;SDS011;10595;51.218;3.452;2023-03-19T05:48:15;28.77;;;15.73;;
20870;SDS011;10595;51.218;3.452;2023-03-19T05:50:41;33.40;;;17.60;;
20870;SDS011;10595;51.218;3.452;2023-03-19T05:53:07;35.53;;;17.13;;
20870;SDS011;10595;51.218;3.452;2023-03-19T05:55:33;38.97;;;18.03;;
20870;SDS011;10595;51.218;3.452;2023-03-19T05:57:59;39.93;;;18.03;;
20870;SDS011;10595;51.218;3.452;2023-03-19T06:00:25;35.20;;;17.37;;
20870;SDS011;10595;51.218;3.452;2023-03-19T06:02:51;39.50;;;19.23;;
20870;SDS011;10595;51.218;3.452;2023-03-19T06:05:18;38.10;;;18.47;;
20870;SDS011;10595;51.218;3.452;2023-03-19T06:07:45;40.37;;;19.50;;
20870;SDS011;10595;51.218;3.452;2023-03-19T06:10:11;40.10;;;18.57;;
20870;SDS011;10595;51.218;3.452;2023-03-19T06:12:37;39.93;;;19.17;;
20870;SDS011;10595;51.218;3.452;2023-03-19T06:15:03;39.73;;;19.43;;
20870;SDS011;10595;51.218;3.452;2023-03-19T06:17:30;43.30;;;19.90;;
20870;SDS011;10595;51.218;3.452;2023-03-19T06:19:56;40.20;;;20.73;;
20870;SDS011;10595;51.218;3.452;2023-03-19T06:22:22;40.83;;;19.97;;
20870;SDS011;10595;51.218;3.452;2023-03-19T06:24:48;45.33;;;20.93;;
20870;SDS011;10595;51.218;3.452;2023-03-19T06:27:15;44.40;;;20.47;;
20870;SDS011;10595;51.218;3.452;2023-03-19T06:29:41;42.47;;;22.20;;
20870;SDS011;10595;51.218;3.452;2023-03-19T06:32:07;48.03;;;20.63;;
20870;SDS011;10595;51.218;3.452;2023-03-19T06:34:33;40.50;;;20.43;;
20870;SDS011;10595;51.218;3.452;2023-03-19T06:36:59;43.40;;;20.53;;
20870;SDS011;10595;51.218;3.452;2023-03-19T06:39:26;42.60;;;19.70;;
20870;SDS011;10595;51.218;3.452;2023-03-19T06:41:52;46.63;;;20.03;;
20870;SDS011;10595;51.218;3.452;2023-03-19T06:44:18;41.60;;;20.67;;
20870;SDS011;10595;51.218;3.452;2023-03-19T06:46:44;42.83;;;19.70;;
20870;SDS011;10595;51.218;3.452;2023-03-19T06:49:10;35.20;;;18.67;;
20870;SDS011;10595;51.218;3.452;2023-03-19T06:51:36;37.77;;;19.53;;
20870;SDS011;10595;51.218;3.452;2023-03-19T06:54:02;34.40;;;18.47;;
20870;SDS011;10595;51.218;3.452;2023-03-19T06:56:28;34.87;;;18.37;;
20870;SDS011;10595;51.218;3.452;2023-03-19T06:58:54;38.17;;;18.33;;
20870;SDS011;10595;51.218;3.452;2023-03-19T07:01:20;34.00;;;18.27;;
20870;SDS011;10595;51.218;3.452;2023-03-19T07:03:47;36.63;;;18.60;;
20870;SDS011;10595;51.218;3.452;2023-03-19T07:06:13;36.67;;;18.87;;
20870;SDS011;10595;51.218;3.452;2023-03-19T07:08:39;36.13;;;18.07;;
20870;SDS011;10595;51.218;3.452;2023-03-19T07:11:10;33.40;;;17.73;;
20870;SDS011;10595;51.218;3.452;2023-03-19T07:13:36;42.93;;;19.33;;
20870;SDS011;10595;51.218;3.452;2023-03-19T07:16:02;38.37;;;18.93;;
20870;SDS011;10595;51.218;3.452;2023-03-19T07:18:28;41.20;;;18.83;;
20870;SDS011;10595;51.218;3.452;2023-03-19T07:20:54;37.70;;;19.27;;
20870;SDS011;10595;51.218;3.452;2023-03-19T07:23:21;40.73;;;19.50;;
20870;SDS011;10595;51.218;3.452;2023-03-19T07:25:47;37.63;;;19.43;;
20870;SDS011;10595;51.218;3.452;2023-03-19T07:28:13;41.43;;;19.73;;
20870;SDS011;10595;51.218;3.452;2023-03-19T07:30:40;44.67;;;20.87;;
20870;SDS011;10595;51.218;3.452;2023-03-19T07:33:06;49.63;;;20.53;;
20870;SDS011;10595;51.218;3.452;2023-03-19T07:35:33;40.93;;;21.07;;
20870;SDS011;10595;51.218;3.452;2023-03-19T07:37:59;40.97;;;21.13;;
20870;SDS011;10595;51.218;3.452;2023-03-19T07:40:26;45.20;;;21.43;;
20870;SDS011;10595;51.218;3.452;2023-03-19T07:42:52;46.00;;;20.70;;
20870;SDS011;10595;51.218;3.452;2023-03-19T07:45:19;43.13;;;21.40;;
20870;SDS011;10595;51.218;3.452;2023-03-19T07:47:45;42.13;;;20.13;;
20870;SDS011;10595;51.218;3.452;2023-03-19T07:50:11;42.00;;;20.13;;
20870;SDS011;10595;51.218;3.452;2023-03-19T07:52:37;47.10;;;20.53;;
20870;SDS011;10595;51.218;3.452;2023-03-19T07:55:03;44.00;;;21.33;;
20870;SDS011;10595;51.218;3.452;2023-03-19T07:57:30;49.17;;;21.83;;
20870;SDS011;10595;51.218;3.452;2023-03-19T07:59:57;48.73;;;22.20;;
20870;SDS011;10595;51.218;3.452;2023-03-19T08:02:23;44.10;;;21.03;;
20870;SDS011;10595;51.218;3.452;2023-03-19T08:04:49;49.57;;;22.50;;
20870;SDS011;10595;51.218;3.452;2023-03-19T08:07:16;51.87;;;22.97;;
20870;SDS011;10595;51.218;3.452;2023-03-19T08:09:42;45.23;;;21.10;;
20870;SDS011;10595;51.218;3.452;2023-03-19T08:12:08;48.53;;;23.50;;
20870;SDS011;10595;51.218;3.452;2023-03-19T08:14:34;61.33;;;24.90;;
20870;SDS011;10595;51.218;3.452;2023-03-19T08:17:00;55.80;;;23.67;;
20870;SDS011;10595;51.218;3.452;2023-03-19T08:19:26;53.93;;;23.03;;
20870;SDS011;10595;51.218;3.452;2023-03-19T08:21:52;56.50;;;24.87;;
20870;SDS011;10595;51.218;3.452;2023-03-19T08:24:18;52.93;;;24.80;;
20870;SDS011;10595;51.218;3.452;2023-03-19T08:26:44;54.83;;;25.37;;
20870;SDS011;10595;51.218;3.452;2023-03-19T08:29:10;60.57;;;26.07;;
20870;SDS011;10595;51.218;3.452;2023-03-19T08:31:37;57.57;;;24.13;;
20870;SDS011;10595;51.218;3.452;2023-03-19T08:34:03;43.77;;;20.90;;
20870;SDS011;10595;51.218;3.452;2023-03-19T08:36:29;33.87;;;17.57;;
20870;SDS011;10595;51.218;3.452;2023-03-19T08:38:55;33.43;;;15.43;;
20870;SDS011;10595;51.218;3.452;2023-03-19T08:41:23;33.23;;;14.03;;
20870;SDS011;10595;51.218;3.452;2023-03-19T08:43:49;41.27;;;13.83;;
20870;SDS011;10595;51.218;3.452;2023-03-19T08:46:15;29.13;;;12.53;;
20870;SDS011;10595;51.218;3.452;2023-03-19T08:48:41;25.93;;;11.73;;
20870;SDS011;10595;51.218;3.452;2023-03-19T08:51:07;22.23;;;10.30;;
20870;SDS011;10595;51.218;3.452;2023-03-19T08:53:33;22.53;;;10.10;;
20870;SDS011;10595;51.218;3.452;2023-03-19T08:56:00;21.87;;;9.93;;
20870;SDS011;10595;51.218;3.452;2023-03-19T08:58:28;22.70;;;9.93;;
20870;SDS011;10595;51.218;3.452;2023-03-19T09:01:04;26.13;;;10.53;;
20870;SDS011;10595;51.218;3.452;2023-03-19T09:03:31;24.40;;;9.30;;
20870;SDS011;10595;51.218;3.452;2023-03-19T09:05:58;23.07;;;9.00;;
20870;SDS011;10595;51.218;3.452;2023-03-19T09:08:25;22.57;;;8.47;;
20870;SDS011;10595;51.218;3.452;2023-03-19T09:10:52;23.07;;;9.00;;
20870;SDS011;10595;51.218;3.452;2023-03-19T09:13:18;24.10;;;9.30;;
20870;SDS011;10595;51.218;3.452;2023-03-19T09:15:44;19.20;;;8.20;;
20870;SDS011;10595;51.218;3.452;2023-03-19T09:18:10;22.83;;;8.30;;
20870;SDS011;10595;51.218;3.452;2023-03-19T09:20:36;24.07;;;8.37;;
20870;SDS011;10595;51.218;3.452;2023-03-19T09:23:02;24.90;;;8.37;;
20870;SDS011;10595;51.218;3.452;2023-03-19T09:25:28;24.50;;;9.70;;
20870;SDS011;10595;51.218;3.452;2023-03-19T09:27:54;21.93;;;7.83;;
20870;SDS011;10595;51.218;3.452;2023-03-19T09:30:20;23.97;;;8.27;;
20870;SDS011;10595;51.218;3.452;2023-03-19T09:32:46;20.70;;;7.00;;
20870;SDS011;10595;51.218;3.452;2023-03-19T09:35:12;13.93;;;7.47;;
20870;SDS011;10595;51.218;3.452;2023-03-19T09:37:38;13.60;;;7.20;;
20870;SDS011;10595;51.218;3.452;2023-03-19T09:40:04;21.63;;;7.47;;
20870;SDS011;10595;51.218;3.452;2023-03-19T09:45:16;16.83;;;6.93;;
20870;SDS011;10595;51.218;3.452;2023-03-19T09:47:42;15.03;;;7.43;;
20870;SDS011;10595;51.218;3.452;2023-03-19T09:50:15;14.47;;;8.00;;
20870;SDS011;10595;51.218;3.452;2023-03-19T09:52:43;15.27;;;6.93;;
20870;SDS011;10595;51.218;3.452;2023-03-19T09:57:50;16.43;;;6.77;;
20870;SDS011;10595;51.218;3.452;2023-03-19T10:00:24;17.17;;;7.47;;
20870;SDS011;10595;51.218;3.452;2023-03-19T10:07:59;12.37;;;6.40;;
20870;SDS011;10595;51.218;3.452;2023-03-19T10:13:20;17.97;;;7.07;;
20870;SDS011;10595;51.218;3.452;2023-03-19T10:15:51;17.80;;;6.90;;
20870;SDS011;10595;51.218;3.452;2023-03-19T10:18:19;13.43;;;6.33;;
20870;SDS011;10595;51.218;3.452;2023-03-19T10:20:57;14.13;;;6.57;;
20870;SDS011;10595;51.218;3.452;2023-03-19T10:25:53;11.80;;;6.80;;
20870;SDS011;10595;51.218;3.452;2023-03-19T10:28:20;13.83;;;7.03;;
20870;SDS011;10595;51.218;3.452;2023-03-19T10:31:00;15.47;;;7.00;;
20870;SDS011;10595;51.218;3.452;2023-03-19T10:33:41;11.47;;;5.90;;
20870;SDS011;10595;51.218;3.452;2023-03-19T10:36:08;9.07;;;5.43;;
20870;SDS011;10595;51.218;3.452;2023-03-19T10:38:39;9.90;;;5.50;;
20870;SDS011;10595;51.218;3.452;2023-03-19T10:43:40;8.50;;;4.83;;
20870;SDS011;10595;51.218;3.452;2023-03-19T10:46:11;6.20;;;4.00;;
20870;SDS011;10595;51.218;3.452;2023-03-19T10:48:41;7.93;;;4.37;;
20870;SDS011;10595;51.218;3.452;2023-03-19T10:51:09;4.90;;;4.00;;
20870;SDS011;10595;51.218;3.452;2023-03-19T10:53:38;5.27;;;3.70;;
20870;SDS011;10595;51.218;3.452;2023-03-19T10:58:32;7.63;;;3.30;;
20870;SDS011;10595;51.218;3.452;2023-03-19T11:01:03;7.73;;;3.40;;
20870;SDS011;10595;51.218;3.452;2023-03-19T11:08:41;6.37;;;3.20;;
20870;SDS011;10595;51.218;3.452;2023-03-19T11:11:21;3.70;;;2.90;;
20870;SDS011;10595;51.218;3.452;2023-03-19T11:13:48;5.77;;;3.10;;
20870;SDS011;10595;51.218;3.452;2023-03-19T11:16:14;4.90;;;2.83;;
20870;SDS011;10595;51.218;3.452;2023-03-19T11:18:40;6.37;;;2.90;;
20870;SDS011;10595;51.218;3.452;2023-03-19T11:21:19;4.50;;;2.60;;
20870;SDS011;10595;51.218;3.452;2023-03-19T11:23:46;4.23;;;2.60;;
20870;SDS011;10595;51.218;3.452;2023-03-19T11:26:19;4.03;;;2.03;;
20870;SDS011;10595;51.218;3.452;2023-03-19T11:28:49;3.63;;;2.40;;
20870;SDS011;10595;51.218;3.452;2023-03-19T11:41:35;5.47;;;2.83;;
20870;SDS011;10595;51.218;3.452;2023-03-19T11:44:06;6.23;;;2.33;;
20870;SDS011;10595;51.218;3.452;2023-03-19T11:47:14;5.57;;;2.43;;
20870;SDS011;10595;51.218;3.452;2023-03-19T11:49:52;6.73;;;2.50;;
20870;SDS011;10595;51.218;3.452;2023-03-19T11:52:28;3.83;;;2.20;;
20870;SDS011;10595;51.218;3.452;2023-03-19T12:00:29;4.73;;;2.60;;
20870;SDS011;10595;51.218;3.452;2023-03-19T12:05:35;4.00;;;2.13;;
20870;SDS011;10595;51.218;3.452;2023-03-19T12:18:43;6.97;;;2.77;;
20870;SDS011;10595;51.218;3.452;2023-03-19T12:26:34;6.57;;;2.60;;
20870;SDS011;10595;51.218;3.452;2023-03-19T12:29:22;8.80;;;3.53;;
20870;SDS011;10595;51.218;3.452;2023-03-19T12:32:07;8.13;;;3.20;;
20870;SDS011;10595;51.218;3.452;2023-03-19T12:39:39;5.27;;;2.97;;
20870;SDS011;10595;51.218;3.452;2023-03-19T12:42:07;4.70;;;2.40;;
20870;SDS011;10595;51.218;3.452;2023-03-19T12:44:41;6.20;;;2.70;;
20870;SDS011;10595;51.218;3.452;2023-03-19T12:47:09;7.10;;;3.17;;
20870;SDS011;10595;51.218;3.452;2023-03-19T12:49:41;7.30;;;3.40;;
20870;SDS011;10595;51.218;3.452;2023-03-19T12:52:13;7.57;;;4.00;;
20870;SDS011;10595;51.218;3.452;2023-03-19T12:54:41;12.60;;;5.40;;
20870;SDS011;10595;51.218;3.452;2023-03-19T12:57:14;10.87;;;5.00;;
20870;SDS011;10595;51.218;3.452;2023-03-19T13:02:19;14.93;;;5.20;;
20870;SDS011;10595;51.218;3.452;2023-03-19T13:04:52;12.70;;;5.40;;
20870;SDS011;10595;51.218;3.452;2023-03-19T13:12:35;15.37;;;6.27;;
20870;SDS011;10595;51.218;3.452;2023-03-19T13:22:58;16.23;;;6.03;;
20870;SDS011;10595;51.218;3.452;2023-03-19T13:25:28;15.50;;;5.73;;
20870;SDS011;10595;51.218;3.452;2023-03-19T13:27:55;22.00;;;6.80;;
20870;SDS011;10595;51.218;3.452;2023-03-19T13:30:22;15.10;;;5.63;;
20870;SDS011;10595;51.218;3.452;2023-03-19T13:32:49;15.50;;;5.77;;
20870;SDS011;10595;51.218;3.452;2023-03-19T13:38:02;18.00;;;6.40;;
20870;SDS011;10595;51.218;3.452;2023-03-19T13:40:38;14.73;;;6.80;;
20870;SDS011;10595;51.218;3.452;2023-03-19T13:43:09;17.90;;;7.27;;
20870;SDS011;10595;51.218;3.452;2023-03-19T13:45:44;20.90;;;6.97;;
20870;SDS011;10595;51.218;3.452;2023-03-19T13:51:34;18.53;;;7.10;;
20870;SDS011;10595;51.218;3.452;2023-03-19T13:53:37;21.57;;;6.87;;
20870;SDS011;10595;51.218;3.452;2023-03-19T13:56:04;16.90;;;6.17;;
20870;SDS011;10595;51.218;3.452;2023-03-19T13:58:42;20.40;;;6.83;;
20870;SDS011;10595;51.218;3.452;2023-03-19T14:03:56;16.63;;;6.30;;
20870;SDS011;10595;51.218;3.452;2023-03-19T14:06:39;17.77;;;6.30;;
20870;SDS011;10595;51.218;3.452;2023-03-19T14:09:26;16.00;;;6.07;;
20870;SDS011;10595;51.218;3.452;2023-03-19T14:11:56;16.23;;;6.30;;
20870;SDS011;10595;51.218;3.452;2023-03-19T14:14:33;19.17;;;6.70;;
20870;SDS011;10595;51.218;3.452;2023-03-19T14:17:03;12.63;;;6.37;;
20870;SDS011;10595;51.218;3.452;2023-03-19T14:19:30;15.27;;;6.50;;
20870;SDS011;10595;51.218;3.452;2023-03-19T14:26:50;12.10;;;6.20;;
20870;SDS011;10595;51.218;3.452;2023-03-19T14:29:16;11.80;;;5.57;;
20870;SDS011;10595;51.218;3.452;2023-03-19T14:31:53;12.43;;;6.00;;
20870;SDS011;10595;51.218;3.452;2023-03-19T14:34:23;14.50;;;6.13;;
20870;SDS011;10595;51.218;3.452;2023-03-19T14:39:21;12.83;;;6.80;;
20870;SDS011;10595;51.218;3.452;2023-03-19T14:41:49;14.73;;;6.33;;
20870;SDS011;10595;51.218;3.452;2023-03-19T14:51:56;15.57;;;6.33;;
20870;SDS011;10595;51.218;3.452;2023-03-19T14:57:16;9.87;;;5.90;;
20870;SDS011;10595;51.218;3.452;2023-03-19T14:59:43;12.87;;;5.93;;
20870;SDS011;10595;51.218;3.452;2023-03-19T15:02:42;14.33;;;5.73;;
20870;SDS011;10595;51.218;3.452;2023-03-19T15:05:03;9.40;;;6.50;;
20870;SDS011;10595;51.218;3.452;2023-03-19T15:07:33;12.27;;;6.33;;
20870;SDS011;10595;51.218;3.452;2023-03-19T15:10:03;12.40;;;6.50;;
20870;SDS011;10595;51.218;3.452;2023-03-19T15:15:07;17.20;;;6.83;;
20870;SDS011;10595;51.218;3.452;2023-03-19T15:17:38;15.37;;;6.83;;
20870;SDS011;10595;51.218;3.452;2023-03-19T15:20:22;18.20;;;7.80;;
20870;SDS011;10595;51.218;3.452;2023-03-19T15:22:55;16.57;;;7.17;;
20870;SDS011;10595;51.218;3.452;2023-03-19T15:25:22;13.40;;;6.57;;
20870;SDS011;10595;51.218;3.452;2023-03-19T15:28:10;14.30;;;7.70;;
20870;SDS011;10595;51.218;3.452;2023-03-19T15:30:36;20.77;;;8.73;;
20870;SDS011;10595;51.218;3.452;2023-03-19T15:33:03;13.13;;;6.70;;
20870;SDS011;10595;51.218;3.452;2023-03-19T15:35:33;13.13;;;6.60;;
20870;SDS011;10595;51.218;3.452;2023-03-19T15:38:06;12.80;;;6.60;;
20870;SDS011;10595;51.218;3.452;2023-03-19T15:40:33;13.47;;;6.77;;
20870;SDS011;10595;51.218;3.452;2023-03-19T15:43:00;12.23;;;6.67;;
20870;SDS011;10595;51.218;3.452;2023-03-19T15:45:27;13.80;;;6.97;;
20870;SDS011;10595;51.218;3.452;2023-03-19T15:50:22;13.00;;;6.43;;
20870;SDS011;10595;51.218;3.452;2023-03-19T15:52:50;14.87;;;6.80;;
20870;SDS011;10595;51.218;3.452;2023-03-19T15:55:17;10.47;;;6.90;;
20870;SDS011;10595;51.218;3.452;2023-03-19T15:57:45;19.03;;;11.93;;
20870;SDS011;10595;51.218;3.452;2023-03-19T16:00:12;14.97;;;7.97;;
20870;SDS011;10595;51.218;3.452;2023-03-19T16:02:39;16.53;;;7.03;;
20870;SDS011;10595;51.218;3.452;2023-03-19T16:05:06;14.00;;;7.03;;
20870;SDS011;10595;51.218;3.452;2023-03-19T16:07:40;17.93;;;9.77;;
20870;SDS011;10595;51.218;3.452;2023-03-19T16:12:52;15.13;;;6.33;;
20870;SDS011;10595;51.218;3.452;2023-03-19T16:15:29;17.27;;;7.40;;
20870;SDS011;10595;51.218;3.452;2023-03-19T16:23:20;17.83;;;7.17;;
20870;SDS011;10595;51.218;3.452;2023-03-19T16:25:48;16.70;;;6.37;;
20870;SDS011;10595;51.218;3.452;2023-03-19T16:28:18;16.57;;;6.83;;
20870;SDS011;10595;51.218;3.452;2023-03-19T16:30:47;18.47;;;7.60;;
20870;SDS011;10595;51.218;3.452;2023-03-19T16:33:14;14.87;;;7.27;;
20870;SDS011;10595;51.218;3.452;2023-03-19T16:35:40;14.70;;;6.23;;
20870;SDS011;10595;51.218;3.452;2023-03-19T16:40:39;14.43;;;6.20;;
20870;SDS011;10595;51.218;3.452;2023-03-19T16:43:06;22.73;;;7.57;;